sensor_id;sensor_type;location;lat;lon;timestamp;P1;durP1;ratioP1;P2;durP2;ratioP2
14698;SDS011;7439;50.804;4.602;2023-07-29T00:00:10;4.03;;;2.40;;
14698;SDS011;7439;50.804;4.602;2023-07-29T00:02:37;2.37;;;2.17;;
14698;SDS011;7439;50.804;4.602;2023-07-29T00:05:05;2.77;;;2.10;;
14698;SDS011;7439;50.804;4.602;2023-07-29T00:07:32;2.23;;;2.10;;
14698;SDS011;7439;50.804;4.602;2023-07-29T00:09:59;4.33;;;2.40;;
14698;SDS011;7439;50.804;4.602;2023-07-29T00:12:27;3.00;;;2.17;;
14698;SDS011;7439;50.804;4.602;2023-07-29T00:14:56;2.47;;;2.27;;
14698;SDS011;7439;50.804;4.602;2023-07-29T00:17:23;2.20;;;2.07;;
14698;SDS011;7439;50.804;4.602;2023-07-29T00:19:51;2.30;;;2.10;;
14698;SDS011;7439;50.804;4.602;2023-07-29T00:22:18;2.40;;;2.20;;
14698;SDS011;7439;50.804;4.602;2023-07-29T00:24:50;2.07;;;1.90;;
14698;SDS011;7439;50.804;4.602;2023-07-29T00:27:18;2.40;;;2.20;;
14698;SDS011;7439;50.804;4.602;2023-07-29T00:29:45;2.40;;;2.20;;
14698;SDS011;7439;50.804;4.602;2023-07-29T00:32:14;2.37;;;2.03;;
14698;SDS011;7439;50.804;4.602;2023-07-29T00:34:42;2.50;;;2.30;;
14698;SDS011;7439;50.804;4.602;2023-07-29T00:37:09;5.73;;;2.40;;
14698;SDS011;7439;50.804;4.602;2023-07-29T00:39:37;3.07;;;2.30;;
14698;SDS011;7439;50.804;4.602;2023-07-29T00:42:05;2.57;;;2.33;;
14698;SDS011;7439;50.804;4.602;2023-07-29T00:44:46;2.93;;;2.40;;
14698;SDS011;7439;50.804;4.602;2023-07-29T00:47:16;2.30;;;2.10;;
14698;SDS011;7439;50.804;4.602;2023-07-29T00:49:50;2.77;;;2.20;;
14698;SDS011;7439;50.804;4.602;2023-07-29T00:52:18;3.47;;;2.03;;
14698;SDS011;7439;50.804;4.602;2023-07-29T00:54:47;4.70;;;2.23;;
14698;SDS011;7439;50.804;4.602;2023-07-29T00:57:30;2.40;;;2.20;;
14698;SDS011;7439;50.804;4.602;2023-07-29T01:00:21;2.67;;;1.80;;
14698;SDS011;7439;50.804;4.602;2023-07-29T01:03:09;2.40;;;2.03;;
14698;SDS011;7439;50.804;4.602;2023-07-29T01:05:39;2.40;;;1.90;;
14698;SDS011;7439;50.804;4.602;2023-07-29T01:08:13;2.63;;;1.93;;
14698;SDS011;7439;50.804;4.602;2023-07-29T01:10:45;1.83;;;1.73;;
14698;SDS011;7439;50.804;4.602;2023-07-29T01:13:27;1.80;;;1.70;;
14698;SDS011;7439;50.804;4.602;2023-07-29T01:16:09;4.03;;;1.90;;
14698;SDS011;7439;50.804;4.602;2023-07-29T01:18:40;2.53;;;2.20;;
14698;SDS011;7439;50.804;4.602;2023-07-29T01:21:16;4.03;;;2.33;;
14698;SDS011;7439;50.804;4.602;2023-07-29T01:23:45;2.60;;;2.33;;
14698;SDS011;7439;50.804;4.602;2023-07-29T01:26:13;2.37;;;2.17;;
14698;SDS011;7439;50.804;4.602;2023-07-29T01:28:40;3.20;;;1.80;;
14698;SDS011;7439;50.804;4.602;2023-07-29T01:31:12;5.03;;;2.33;;
14698;SDS011;7439;50.804;4.602;2023-07-29T01:33:42;1.77;;;1.67;;
14698;SDS011;7439;50.804;4.602;2023-07-29T01:36:11;4.00;;;1.70;;
14698;SDS011;7439;50.804;4.602;2023-07-29T01:38:40;3.17;;;1.70;;
14698;SDS011;7439;50.804;4.602;2023-07-29T01:41:10;3.13;;;2.10;;
14698;SDS011;7439;50.804;4.602;2023-07-29T01:43:37;3.43;;;1.83;;
14698;SDS011;7439;50.804;4.602;2023-07-29T01:46:09;2.00;;;1.90;;
14698;SDS011;7439;50.804;4.602;2023-07-29T01:48:37;2.07;;;1.87;;
14698;SDS011;7439;50.804;4.602;2023-07-29T01:51:04;3.50;;;1.90;;
14698;SDS011;7439;50.804;4.602;2023-07-29T01:53:32;2.93;;;2.00;;
14698;SDS011;7439;50.804;4.602;2023-07-29T01:55:59;2.13;;;1.93;;
14698;SDS011;7439;50.804;4.602;2023-07-29T01:58:28;5.00;;;2.00;;
14698;SDS011;7439;50.804;4.602;2023-07-29T02:00:55;2.97;;;1.90;;
14698;SDS011;7439;50.804;4.602;2023-07-29T02:03:22;4.83;;;2.40;;
14698;SDS011;7439;50.804;4.602;2023-07-29T02:05:50;2.97;;;1.97;;
14698;SDS011;7439;50.804;4.602;2023-07-29T02:08:18;3.57;;;2.17;;
14698;SDS011;7439;50.804;4.602;2023-07-29T02:10:45;2.30;;;2.00;;
14698;SDS011;7439;50.804;4.602;2023-07-29T02:13:14;3.87;;;2.83;;
14698;SDS011;7439;50.804;4.602;2023-07-29T02:15:43;3.13;;;2.60;;
14698;SDS011;7439;50.804;4.602;2023-07-29T02:18:10;2.67;;;2.20;;
14698;SDS011;7439;50.804;4.602;2023-07-29T02:20:37;3.23;;;2.50;;
14698;SDS011;7439;50.804;4.602;2023-07-29T02:23:06;2.77;;;2.13;;
14698;SDS011;7439;50.804;4.602;2023-07-29T02:25:34;3.30;;;2.20;;
14698;SDS011;7439;50.804;4.602;2023-07-29T02:28:02;3.20;;;2.10;;
14698;SDS011;7439;50.804;4.602;2023-07-29T02:30:30;2.83;;;2.10;;
14698;SDS011;7439;50.804;4.602;2023-07-29T02:32:59;5.10;;;2.00;;
14698;SDS011;7439;50.804;4.602;2023-07-29T02:35:26;5.83;;;2.23;;
14698;SDS011;7439;50.804;4.602;2023-07-29T02:37:55;5.03;;;2.30;;
14698;SDS011;7439;50.804;4.602;2023-07-29T02:40:23;7.60;;;2.57;;
14698;SDS011;7439;50.804;4.602;2023-07-29T02:42:51;2.47;;;2.27;;
14698;SDS011;7439;50.804;4.602;2023-07-29T02:45:19;3.20;;;2.27;;
14698;SDS011;7439;50.804;4.602;2023-07-29T02:47:46;3.07;;;2.00;;
14698;SDS011;7439;50.804;4.602;2023-07-29T02:50:16;2.67;;;2.47;;
14698;SDS011;7439;50.804;4.602;2023-07-29T02:52:43;3.10;;;2.40;;
14698;SDS011;7439;50.804;4.602;2023-07-29T02:55:10;5.93;;;2.50;;
14698;SDS011;7439;50.804;4.602;2023-07-29T02:57:38;2.87;;;2.50;;
14698;SDS011;7439;50.804;4.602;2023-07-29T03:00:06;3.10;;;2.80;;
14698;SDS011;7439;50.804;4.602;2023-07-29T03:02:33;2.60;;;2.13;;
14698;SDS011;7439;50.804;4.602;2023-07-29T03:05:01;3.40;;;2.57;;
14698;SDS011;7439;50.804;4.602;2023-07-29T03:07:30;3.17;;;2.30;;
14698;SDS011;7439;50.804;4.602;2023-07-29T03:09:57;6.13;;;2.43;;
14698;SDS011;7439;50.804;4.602;2023-07-29T03:12:25;2.50;;;2.10;;
14698;SDS011;7439;50.804;4.602;2023-07-29T03:14:52;3.70;;;1.80;;
14698;SDS011;7439;50.804;4.602;2023-07-29T03:17:21;6.00;;;3.20;;
14698;SDS011;7439;50.804;4.602;2023-07-29T03:19:48;2.33;;;2.00;;
14698;SDS011;7439;50.804;4.602;2023-07-29T03:22:16;7.43;;;2.40;;
14698;SDS011;7439;50.804;4.602;2023-07-29T03:24:45;3.33;;;2.20;;
14698;SDS011;7439;50.804;4.602;2023-07-29T03:27:12;4.97;;;2.30;;
14698;SDS011;7439;50.804;4.602;2023-07-29T03:29:41;2.60;;;2.40;;
14698;SDS011;7439;50.804;4.602;2023-07-29T03:32:08;2.93;;;2.30;;
14698;SDS011;7439;50.804;4.602;2023-07-29T03:34:36;2.50;;;2.30;;
14698;SDS011;7439;50.804;4.602;2023-07-29T03:37:03;3.83;;;2.50;;
14698;SDS011;7439;50.804;4.602;2023-07-29T03:39:31;2.43;;;2.23;;
14698;SDS011;7439;50.804;4.602;2023-07-29T03:42:00;5.33;;;2.87;;
14698;SDS011;7439;50.804;4.602;2023-07-29T03:44:28;3.30;;;2.67;;
14698;SDS011;7439;50.804;4.602;2023-07-29T03:46:56;2.67;;;2.40;;
14698;SDS011;7439;50.804;4.602;2023-07-29T03:49:23;5.30;;;2.50;;
14698;SDS011;7439;50.804;4.602;2023-07-29T03:51:51;3.03;;;2.80;;
14698;SDS011;7439;50.804;4.602;2023-07-29T03:54:18;3.30;;;2.83;;
14698;SDS011;7439;50.804;4.602;2023-07-29T03:56:46;3.07;;;2.47;;
14698;SDS011;7439;50.804;4.602;2023-07-29T03:59:16;3.43;;;3.03;;
14698;SDS011;7439;50.804;4.602;2023-07-29T04:01:44;5.07;;;3.57;;
14698;SDS011;7439;50.804;4.602;2023-07-29T04:04:11;4.40;;;2.60;;
14698;SDS011;7439;50.804;4.602;2023-07-29T04:06:38;3.30;;;2.60;;
14698;SDS011;7439;50.804;4.602;2023-07-29T04:09:06;3.17;;;2.43;;
14698;SDS011;7439;50.804;4.602;2023-07-29T04:11:34;4.47;;;2.60;;
14698;SDS011;7439;50.804;4.602;2023-07-29T04:14:01;5.83;;;3.23;;
14698;SDS011;7439;50.804;4.602;2023-07-29T04:16:30;3.80;;;3.13;;
14698;SDS011;7439;50.804;4.602;2023-07-29T04:18:58;2.93;;;2.67;;
14698;SDS011;7439;50.804;4.602;2023-07-29T04:21:25;5.13;;;3.00;;
14698;SDS011;7439;50.804;4.602;2023-07-29T04:23:53;3.90;;;3.03;;
14698;SDS011;7439;50.804;4.602;2023-07-29T04:26:20;5.07;;;2.80;;
14698;SDS011;7439;50.804;4.602;2023-07-29T04:28:47;6.50;;;2.70;;
14698;SDS011;7439;50.804;4.602;2023-07-29T04:31:15;3.17;;;2.37;;
14698;SDS011;7439;50.804;4.602;2023-07-29T04:33:44;2.87;;;2.50;;
14698;SDS011;7439;50.804;4.602;2023-07-29T04:36:11;4.23;;;2.87;;
14698;SDS011;7439;50.804;4.602;2023-07-29T04:38:38;5.93;;;2.97;;
14698;SDS011;7439;50.804;4.602;2023-07-29T04:41:06;3.93;;;2.70;;
14698;SDS011;7439;50.804;4.602;2023-07-29T04:43:34;2.83;;;2.57;;
14698;SDS011;7439;50.804;4.602;2023-07-29T04:46:01;3.57;;;2.77;;
14698;SDS011;7439;50.804;4.602;2023-07-29T04:48:29;4.07;;;3.50;;
14698;SDS011;7439;50.804;4.602;2023-07-29T04:50:58;7.17;;;3.00;;
14698;SDS011;7439;50.804;4.602;2023-07-29T04:53:25;2.60;;;2.40;;
14698;SDS011;7439;50.804;4.602;2023-07-29T04:55:52;2.97;;;2.70;;
14698;SDS011;7439;50.804;4.602;2023-07-29T04:58:20;7.60;;;2.90;;
14698;SDS011;7439;50.804;4.602;2023-07-29T05:00:47;4.10;;;2.50;;
14698;SDS011;7439;50.804;4.602;2023-07-29T05:03:14;4.47;;;2.80;;
14698;SDS011;7439;50.804;4.602;2023-07-29T05:05:42;3.03;;;2.30;;
14698;SDS011;7439;50.804;4.602;2023-07-29T05:08:11;4.40;;;2.40;;
14698;SDS011;7439;50.804;4.602;2023-07-29T05:10:38;3.60;;;2.53;;
14698;SDS011;7439;50.804;4.602;2023-07-29T05:13:05;2.60;;;2.40;;
14698;SDS011;7439;50.804;4.602;2023-07-29T05:15:33;2.77;;;2.57;;
14698;SDS011;7439;50.804;4.602;2023-07-29T05:18:00;3.83;;;2.20;;
14698;SDS011;7439;50.804;4.602;2023-07-29T05:20:29;3.10;;;2.50;;
14698;SDS011;7439;50.804;4.602;2023-07-29T05:22:56;2.57;;;2.07;;
14698;SDS011;7439;50.804;4.602;2023-07-29T05:25:25;2.37;;;2.17;;
14698;SDS011;7439;50.804;4.602;2023-07-29T05:27:52;4.80;;;2.40;;
14698;SDS011;7439;50.804;4.602;2023-07-29T05:30:19;3.23;;;2.50;;
14698;SDS011;7439;50.804;4.602;2023-07-29T05:32:47;5.83;;;2.90;;
14698;SDS011;7439;50.804;4.602;2023-07-29T05:35:17;2.30;;;2.10;;
14698;SDS011;7439;50.804;4.602;2023-07-29T05:37:44;3.87;;;2.20;;
14698;SDS011;7439;50.804;4.602;2023-07-29T05:40:11;2.93;;;2.57;;
14698;SDS011;7439;50.804;4.602;2023-07-29T05:42:40;5.93;;;2.50;;
14698;SDS011;7439;50.804;4.602;2023-07-29T05:45:09;3.63;;;2.70;;
14698;SDS011;7439;50.804;4.602;2023-07-29T05:47:36;2.27;;;2.07;;
14698;SDS011;7439;50.804;4.602;2023-07-29T05:50:05;2.43;;;2.23;;
14698;SDS011;7439;50.804;4.602;2023-07-29T05:52:33;3.77;;;2.40;;
14698;SDS011;7439;50.804;4.602;2023-07-29T05:55:01;2.60;;;2.37;;
14698;SDS011;7439;50.804;4.602;2023-07-29T05:57:28;2.67;;;2.47;;
14698;SDS011;7439;50.804;4.602;2023-07-29T05:59:57;4.33;;;2.40;;
14698;SDS011;7439;50.804;4.602;2023-07-29T06:02:25;4.20;;;2.30;;
14698;SDS011;7439;50.804;4.602;2023-07-29T06:04:55;3.30;;;2.23;;
14698;SDS011;7439;50.804;4.602;2023-07-29T06:07:23;1.87;;;1.77;;
14698;SDS011;7439;50.804;4.602;2023-07-29T06:09:54;3.73;;;2.17;;
14698;SDS011;7439;50.804;4.602;2023-07-29T06:12:23;3.27;;;2.10;;
14698;SDS011;7439;50.804;4.602;2023-07-29T06:14:51;4.63;;;2.10;;
14698;SDS011;7439;50.804;4.602;2023-07-29T06:17:20;3.67;;;1.90;;
14698;SDS011;7439;50.804;4.602;2023-07-29T06:19:47;2.70;;;2.50;;
14698;SDS011;7439;50.804;4.602;2023-07-29T06:22:14;2.63;;;2.13;;
14698;SDS011;7439;50.804;4.602;2023-07-29T06:24:42;2.10;;;1.90;;
14698;SDS011;7439;50.804;4.602;2023-07-29T06:27:09;2.40;;;2.20;;
14698;SDS011;7439;50.804;4.602;2023-07-29T06:29:37;2.70;;;2.20;;
14698;SDS011;7439;50.804;4.602;2023-07-29T06:32:05;2.80;;;1.93;;
14698;SDS011;7439;50.804;4.602;2023-07-29T06:34:33;3.20;;;2.20;;
14698;SDS011;7439;50.804;4.602;2023-07-29T06:37:01;3.77;;;2.10;;
14698;SDS011;7439;50.804;4.602;2023-07-29T06:39:28;2.43;;;2.23;;
14698;SDS011;7439;50.804;4.602;2023-07-29T06:41:56;2.23;;;1.97;;
14698;SDS011;7439;50.804;4.602;2023-07-29T06:44:23;2.40;;;2.27;;
14698;SDS011;7439;50.804;4.602;2023-07-29T06:46:50;2.77;;;2.20;;
14698;SDS011;7439;50.804;4.602;2023-07-29T06:49:18;2.73;;;2.53;;
14698;SDS011;7439;50.804;4.602;2023-07-29T06:51:47;3.10;;;2.90;;
14698;SDS011;7439;50.804;4.602;2023-07-29T06:54:15;2.77;;;2.57;;
14698;SDS011;7439;50.804;4.602;2023-07-29T06:56:43;2.93;;;2.70;;
14698;SDS011;7439;50.804;4.602;2023-07-29T06:59:10;3.43;;;3.10;;
14698;SDS011;7439;50.804;4.602;2023-07-29T07:01:37;2.77;;;2.67;;
14698;SDS011;7439;50.804;4.602;2023-07-29T07:04:05;3.40;;;3.10;;
14698;SDS011;7439;50.804;4.602;2023-07-29T07:06:32;3.37;;;2.90;;
14698;SDS011;7439;50.804;4.602;2023-07-29T07:09:01;2.90;;;2.80;;
14698;SDS011;7439;50.804;4.602;2023-07-29T07:11:28;3.50;;;3.20;;
14698;SDS011;7439;50.804;4.602;2023-07-29T07:13:56;3.73;;;3.30;;
14698;SDS011;7439;50.804;4.602;2023-07-29T07:16:23;3.50;;;3.20;;
14698;SDS011;7439;50.804;4.602;2023-07-29T07:18:51;3.37;;;3.17;;
14698;SDS011;7439;50.804;4.602;2023-07-29T07:21:18;3.50;;;3.30;;
14698;SDS011;7439;50.804;4.602;2023-07-29T07:23:46;3.50;;;3.30;;
14698;SDS011;7439;50.804;4.602;2023-07-29T07:26:14;3.40;;;3.20;;
14698;SDS011;7439;50.804;4.602;2023-07-29T07:28:42;3.77;;;3.40;;
14698;SDS011;7439;50.804;4.602;2023-07-29T07:31:09;3.47;;;3.17;;
14698;SDS011;7439;50.804;4.602;2023-07-29T07:33:38;3.30;;;3.00;;
14698;SDS011;7439;50.804;4.602;2023-07-29T07:36:06;3.43;;;3.23;;
14698;SDS011;7439;50.804;4.602;2023-07-29T07:38:33;3.73;;;3.47;;
14698;SDS011;7439;50.804;4.602;2023-07-29T07:41:01;3.77;;;3.40;;
14698;SDS011;7439;50.804;4.602;2023-07-29T07:43:29;3.40;;;3.20;;
14698;SDS011;7439;50.804;4.602;2023-07-29T07:45:57;3.77;;;3.47;;
14698;SDS011;7439;50.804;4.602;2023-07-29T07:48:25;3.50;;;3.30;;
14698;SDS011;7439;50.804;4.602;2023-07-29T07:50:52;3.60;;;3.37;;
14698;SDS011;7439;50.804;4.602;2023-07-29T07:53:19;3.43;;;3.20;;
14698;SDS011;7439;50.804;4.602;2023-07-29T07:55:47;2.80;;;2.70;;
14698;SDS011;7439;50.804;4.602;2023-07-29T07:58:14;3.13;;;2.93;;
14698;SDS011;7439;50.804;4.602;2023-07-29T08:00:43;3.00;;;2.80;;
14698;SDS011;7439;50.804;4.602;2023-07-29T08:03:11;2.83;;;2.67;;
14698;SDS011;7439;50.804;4.602;2023-07-29T08:05:38;3.20;;;3.00;;
14698;SDS011;7439;50.804;4.602;2023-07-29T08:08:05;4.03;;;3.73;;
14698;SDS011;7439;50.804;4.602;2023-07-29T08:10:33;3.63;;;3.43;;
14698;SDS011;7439;50.804;4.602;2023-07-29T08:13:01;3.57;;;3.30;;
14698;SDS011;7439;50.804;4.602;2023-07-29T08:15:29;3.63;;;3.43;;
14698;SDS011;7439;50.804;4.602;2023-07-29T08:17:58;3.60;;;3.40;;
14698;SDS011;7439;50.804;4.602;2023-07-29T08:20:25;3.97;;;3.73;;
14698;SDS011;7439;50.804;4.602;2023-07-29T08:22:52;4.70;;;4.30;;
14698;SDS011;7439;50.804;4.602;2023-07-29T08:25:20;4.63;;;4.33;;
14698;SDS011;7439;50.804;4.602;2023-07-29T08:27:47;5.30;;;4.90;;
14698;SDS011;7439;50.804;4.602;2023-07-29T08:30:14;5.23;;;4.93;;
14698;SDS011;7439;50.804;4.602;2023-07-29T08:32:43;5.17;;;4.97;;
14698;SDS011;7439;50.804;4.602;2023-07-29T08:35:11;5.20;;;5.00;;
14698;SDS011;7439;50.804;4.602;2023-07-29T08:37:39;5.93;;;5.63;;
14698;SDS011;7439;50.804;4.602;2023-07-29T08:40:07;6.17;;;5.80;;
14698;SDS011;7439;50.804;4.602;2023-07-29T08:42:35;5.20;;;4.90;;
14698;SDS011;7439;50.804;4.602;2023-07-29T08:45:06;5.20;;;4.90;;
14698;SDS011;7439;50.804;4.602;2023-07-29T08:47:34;6.03;;;5.33;;
14698;SDS011;7439;50.804;4.602;2023-07-29T08:50:01;7.00;;;4.50;;
14698;SDS011;7439;50.804;4.602;2023-07-29T08:52:31;4.57;;;4.37;;
14698;SDS011;7439;50.804;4.602;2023-07-29T08:54:59;5.33;;;4.93;;
14698;SDS011;7439;50.804;4.602;2023-07-29T08:57:27;5.30;;;5.00;;
14698;SDS011;7439;50.804;4.602;2023-07-29T08:59:55;5.33;;;5.03;;
14698;SDS011;7439;50.804;4.602;2023-07-29T09:02:23;5.30;;;5.00;;
14698;SDS011;7439;50.804;4.602;2023-07-29T09:04:51;5.50;;;5.20;;
14698;SDS011;7439;50.804;4.602;2023-07-29T09:07:18;5.63;;;5.33;;
14698;SDS011;7439;50.804;4.602;2023-07-29T09:09:47;5.27;;;5.00;;
14698;SDS011;7439;50.804;4.602;2023-07-29T09:12:14;6.33;;;5.93;;
14698;SDS011;7439;50.804;4.602;2023-07-29T09:14:42;6.93;;;6.53;;
14698;SDS011;7439;50.804;4.602;2023-07-29T09:17:09;6.87;;;6.57;;
14698;SDS011;7439;50.804;4.602;2023-07-29T09:19:37;6.00;;;5.70;;
14698;SDS011;7439;50.804;4.602;2023-07-29T09:22:04;4.30;;;4.10;;
14698;SDS011;7439;50.804;4.602;2023-07-29T09:24:31;3.83;;;3.63;;
14698;SDS011;7439;50.804;4.602;2023-07-29T09:27:02;4.63;;;4.33;;
14698;SDS011;7439;50.804;4.602;2023-07-29T09:29:30;4.40;;;4.10;;
14698;SDS011;7439;50.804;4.602;2023-07-29T09:34:41;4.33;;;3.97;;
14698;SDS011;7439;50.804;4.602;2023-07-29T09:37:08;3.93;;;3.63;;
14698;SDS011;7439;50.804;4.602;2023-07-29T09:39:35;4.20;;;4.00;;
14698;SDS011;7439;50.804;4.602;2023-07-29T09:42:04;3.67;;;3.47;;
14698;SDS011;7439;50.804;4.602;2023-07-29T09:44:35;3.90;;;3.67;;
14698;SDS011;7439;50.804;4.602;2023-07-29T09:47:03;3.83;;;3.63;;
14698;SDS011;7439;50.804;4.602;2023-07-29T09:49:33;3.33;;;3.13;;
14698;SDS011;7439;50.804;4.602;2023-07-29T09:52:02;3.87;;;3.67;;
14698;SDS011;7439;50.804;4.602;2023-07-29T09:54:30;3.00;;;2.77;;
14698;SDS011;7439;50.804;4.602;2023-07-29T09:56:57;2.87;;;2.77;;
14698;SDS011;7439;50.804;4.602;2023-07-29T09:59:26;3.67;;;3.40;;
14698;SDS011;7439;50.804;4.602;2023-07-29T10:01:53;3.13;;;2.93;;
14698;SDS011;7439;50.804;4.602;2023-07-29T10:04:21;3.90;;;3.60;;
14698;SDS011;7439;50.804;4.602;2023-07-29T10:06:48;3.40;;;3.20;;
14698;SDS011;7439;50.804;4.602;2023-07-29T10:09:16;3.30;;;3.10;;
14698;SDS011;7439;50.804;4.602;2023-07-29T10:11:44;7.47;;;3.27;;
14698;SDS011;7439;50.804;4.602;2023-07-29T10:14:12;3.30;;;3.10;;
14698;SDS011;7439;50.804;4.602;2023-07-29T10:16:41;3.33;;;3.13;;
14698;SDS011;7439;50.804;4.602;2023-07-29T10:19:13;3.50;;;3.30;;
14698;SDS011;7439;50.804;4.602;2023-07-29T10:21:43;3.37;;;3.17;;
14698;SDS011;7439;50.804;4.602;2023-07-29T10:24:12;3.70;;;3.30;;
14698;SDS011;7439;50.804;4.602;2023-07-29T10:26:41;5.70;;;5.40;;
14698;SDS011;7439;50.804;4.602;2023-07-29T10:29:10;90.33;;;86.80;;
14698;SDS011;7439;50.804;4.602;2023-07-29T10:31:40;49.67;;;47.53;;
14698;SDS011;7439;50.804;4.602;2023-07-29T10:34:09;30.50;;;29.00;;
14698;SDS011;7439;50.804;4.602;2023-07-29T10:36:38;25.17;;;23.97;;
14698;SDS011;7439;50.804;4.602;2023-07-29T10:39:06;16.70;;;15.90;;
14698;SDS011;7439;50.804;4.602;2023-07-29T10:47:12;9.03;;;8.50;;
14698;SDS011;7439;50.804;4.602;2023-07-29T10:49:39;9.90;;;9.30;;
14698;SDS011;7439;50.804;4.602;2023-07-29T10:52:07;9.63;;;9.13;;
14698;SDS011;7439;50.804;4.602;2023-07-29T10:54:41;14.37;;;13.67;;
14698;SDS011;7439;50.804;4.602;2023-07-29T10:57:12;16.30;;;15.60;;
14698;SDS011;7439;50.804;4.602;2023-07-29T10:59:40;21.73;;;20.53;;
14698;SDS011;7439;50.804;4.602;2023-07-29T11:02:17;27.13;;;26.00;;
14698;SDS011;7439;50.804;4.602;2023-07-29T11:04:48;24.90;;;23.83;;
14698;SDS011;7439;50.804;4.602;2023-07-29T11:07:19;34.07;;;32.67;;
14698;SDS011;7439;50.804;4.602;2023-07-29T11:09:55;26.80;;;25.60;;
14698;SDS011;7439;50.804;4.602;2023-07-29T11:12:42;27.40;;;26.20;;
14698;SDS011;7439;50.804;4.602;2023-07-29T11:15:20;39.37;;;37.77;;
14698;SDS011;7439;50.804;4.602;2023-07-29T11:17:50;17.10;;;16.00;;
14698;SDS011;7439;50.804;4.602;2023-07-29T11:20:18;35.13;;;33.60;;
14698;SDS011;7439;50.804;4.602;2023-07-29T11:22:46;46.60;;;44.70;;
14698;SDS011;7439;50.804;4.602;2023-07-29T11:25:15;38.97;;;37.23;;
14698;SDS011;7439;50.804;4.602;2023-07-29T11:27:42;42.53;;;40.77;;
14698;SDS011;7439;50.804;4.602;2023-07-29T11:30:10;34.73;;;33.17;;
14698;SDS011;7439;50.804;4.602;2023-07-29T11:32:38;40.90;;;39.10;;
14698;SDS011;7439;50.804;4.602;2023-07-29T11:35:07;29.00;;;27.80;;
14698;SDS011;7439;50.804;4.602;2023-07-29T11:37:36;27.73;;;26.43;;
14698;SDS011;7439;50.804;4.602;2023-07-29T11:40:04;34.43;;;32.73;;
14698;SDS011;7439;50.804;4.602;2023-07-29T11:42:31;26.80;;;25.50;;
14698;SDS011;7439;50.804;4.602;2023-07-29T11:44:59;22.33;;;21.23;;
14698;SDS011;7439;50.804;4.602;2023-07-29T11:47:28;14.40;;;13.60;;
14698;SDS011;7439;50.804;4.602;2023-07-29T11:49:57;12.93;;;12.23;;
14698;SDS011;7439;50.804;4.602;2023-07-29T11:52:26;15.33;;;14.63;;
14698;SDS011;7439;50.804;4.602;2023-07-29T11:54:54;12.83;;;12.20;;
14698;SDS011;7439;50.804;4.602;2023-07-29T11:57:21;27.07;;;25.87;;
14698;SDS011;7439;50.804;4.602;2023-07-29T11:59:52;83.17;;;79.87;;
14698;SDS011;7439;50.804;4.602;2023-07-29T12:02:21;171.27;;;165.10;;
14698;SDS011;7439;50.804;4.602;2023-07-29T12:04:49;218.53;;;210.93;;
14698;SDS011;7439;50.804;4.602;2023-07-29T12:07:17;275.57;;;265.97;;
14698;SDS011;7439;50.804;4.602;2023-07-29T12:09:46;301.77;;;291.03;;
14698;SDS011;7439;50.804;4.602;2023-07-29T12:12:14;286.90;;;276.83;;
14698;SDS011;7439;50.804;4.602;2023-07-29T12:14:43;217.87;;;210.23;;
14698;SDS011;7439;50.804;4.602;2023-07-29T12:17:11;252.30;;;243.47;;
14698;SDS011;7439;50.804;4.602;2023-07-29T12:19:39;266.47;;;257.00;;
14698;SDS011;7439;50.804;4.602;2023-07-29T12:22:07;306.50;;;295.53;;
14698;SDS011;7439;50.804;4.602;2023-07-29T12:24:40;307.97;;;296.93;;
14698;SDS011;7439;50.804;4.602;2023-07-29T12:27:11;314.63;;;303.47;;
14698;SDS011;7439;50.804;4.602;2023-07-29T12:29:40;263.87;;;254.73;;
14698;SDS011;7439;50.804;4.602;2023-07-29T12:32:09;227.77;;;219.90;;
14698;SDS011;7439;50.804;4.602;2023-07-29T12:34:40;238.73;;;230.23;;
14698;SDS011;7439;50.804;4.602;2023-07-29T12:37:50;194.30;;;187.50;;
14698;SDS011;7439;50.804;4.602;2023-07-29T12:40:45;120.33;;;115.93;;
14698;SDS011;7439;50.804;4.602;2023-07-29T12:43:14;69.13;;;66.30;;
14698;SDS011;7439;50.804;4.602;2023-07-29T12:45:41;54.40;;;52.10;;
14698;SDS011;7439;50.804;4.602;2023-07-29T12:48:09;51.47;;;49.13;;
14698;SDS011;7439;50.804;4.602;2023-07-29T12:50:37;25.87;;;24.70;;
14698;SDS011;7439;50.804;4.602;2023-07-29T12:53:04;20.97;;;20.07;;
14698;SDS011;7439;50.804;4.602;2023-07-29T12:55:31;27.03;;;25.90;;
14698;SDS011;7439;50.804;4.602;2023-07-29T12:57:59;60.10;;;57.77;;
14698;SDS011;7439;50.804;4.602;2023-07-29T13:00:28;71.30;;;68.57;;
14698;SDS011;7439;50.804;4.602;2023-07-29T13:02:55;67.87;;;65.23;;
14698;SDS011;7439;50.804;4.602;2023-07-29T13:05:22;90.37;;;86.97;;
14698;SDS011;7439;50.804;4.602;2023-07-29T13:07:49;81.17;;;78.07;;
14698;SDS011;7439;50.804;4.602;2023-07-29T13:10:16;66.47;;;63.90;;
14698;SDS011;7439;50.804;4.602;2023-07-29T13:12:44;65.57;;;62.97;;
14698;SDS011;7439;50.804;4.602;2023-07-29T13:15:11;62.40;;;59.90;;
14698;SDS011;7439;50.804;4.602;2023-07-29T13:17:40;40.23;;;38.63;;
14698;SDS011;7439;50.804;4.602;2023-07-29T13:20:07;9.37;;;8.97;;
14698;SDS011;7439;50.804;4.602;2023-07-29T13:22:35;9.17;;;8.77;;
14698;SDS011;7439;50.804;4.602;2023-07-29T13:25:02;8.67;;;8.27;;
14698;SDS011;7439;50.804;4.602;2023-07-29T13:27:30;4.30;;;4.10;;
14698;SDS011;7439;50.804;4.602;2023-07-29T13:29:57;7.17;;;6.87;;
14698;SDS011;7439;50.804;4.602;2023-07-29T13:32:25;11.77;;;11.27;;
14698;SDS011;7439;50.804;4.602;2023-07-29T13:34:53;11.77;;;11.27;;
14698;SDS011;7439;50.804;4.602;2023-07-29T13:37:21;10.87;;;10.37;;
14698;SDS011;7439;50.804;4.602;2023-07-29T13:39:48;9.23;;;8.83;;
14698;SDS011;7439;50.804;4.602;2023-07-29T13:42:15;8.73;;;8.33;;
14698;SDS011;7439;50.804;4.602;2023-07-29T13:44:43;6.20;;;5.90;;
14698;SDS011;7439;50.804;4.602;2023-07-29T13:47:10;5.73;;;5.47;;
14698;SDS011;7439;50.804;4.602;2023-07-29T13:49:37;6.07;;;5.87;;
14698;SDS011;7439;50.804;4.602;2023-07-29T13:52:06;4.83;;;4.63;;
14698;SDS011;7439;50.804;4.602;2023-07-29T13:54:34;5.93;;;5.63;;
14698;SDS011;7439;50.804;4.602;2023-07-29T13:57:01;4.90;;;4.70;;
14698;SDS011;7439;50.804;4.602;2023-07-29T13:59:29;4.00;;;3.80;;
14698;SDS011;7439;50.804;4.602;2023-07-29T14:01:56;3.47;;;3.27;;
14698;SDS011;7439;50.804;4.602;2023-07-29T14:04:23;3.90;;;3.70;;
14698;SDS011;7439;50.804;4.602;2023-07-29T14:06:51;4.27;;;4.07;;
14698;SDS011;7439;50.804;4.602;2023-07-29T14:09:19;4.80;;;4.50;;
14698;SDS011;7439;50.804;4.602;2023-07-29T14:11:47;3.90;;;3.70;;
14698;SDS011;7439;50.804;4.602;2023-07-29T14:14:14;4.00;;;3.80;;
14698;SDS011;7439;50.804;4.602;2023-07-29T14:16:42;4.30;;;4.10;;
14698;SDS011;7439;50.804;4.602;2023-07-29T14:19:09;4.13;;;3.93;;
14698;SDS011;7439;50.804;4.602;2023-07-29T14:21:36;3.63;;;3.30;;
14698;SDS011;7439;50.804;4.602;2023-07-29T14:24:04;3.20;;;3.10;;
14698;SDS011;7439;50.804;4.602;2023-07-29T14:26:33;3.57;;;3.37;;
14698;SDS011;7439;50.804;4.602;2023-07-29T14:29:00;3.80;;;3.50;;
14698;SDS011;7439;50.804;4.602;2023-07-29T14:31:27;3.47;;;3.37;;
14698;SDS011;7439;50.804;4.602;2023-07-29T14:33:55;3.53;;;3.33;;
14698;SDS011;7439;50.804;4.602;2023-07-29T14:36:22;4.17;;;3.87;;
14698;SDS011;7439;50.804;4.602;2023-07-29T14:38:50;3.37;;;3.17;;
14698;SDS011;7439;50.804;4.602;2023-07-29T14:41:17;3.37;;;3.23;;
14698;SDS011;7439;50.804;4.602;2023-07-29T14:43:46;3.43;;;3.23;;
14698;SDS011;7439;50.804;4.602;2023-07-29T14:46:13;3.60;;;3.40;;
14698;SDS011;7439;50.804;4.602;2023-07-29T14:48:41;3.27;;;3.17;;
14698;SDS011;7439;50.804;4.602;2023-07-29T14:51:08;3.50;;;3.30;;
14698;SDS011;7439;50.804;4.602;2023-07-29T14:53:35;3.60;;;3.40;;
14698;SDS011;7439;50.804;4.602;2023-07-29T14:56:03;3.63;;;3.33;;
14698;SDS011;7439;50.804;4.602;2023-07-29T14:58:31;3.30;;;3.10;;
14698;SDS011;7439;50.804;4.602;2023-07-29T15:01:00;4.27;;;3.60;;
14698;SDS011;7439;50.804;4.602;2023-07-29T15:03:27;3.23;;;3.03;;
14698;SDS011;7439;50.804;4.602;2023-07-29T15:05:54;5.27;;;3.23;;
14698;SDS011;7439;50.804;4.602;2023-07-29T15:08:24;3.00;;;2.90;;
14698;SDS011;7439;50.804;4.602;2023-07-29T15:10:51;3.53;;;3.33;;